This is the latest recevied weather packets stored in our database for station/object KG7KID-3. If no packets are shown the sender has not sent any weather packets the latest 10 day(s).
| Time | Temp. | Humidity | Pressure | Rain* | Wind** | Luminosity | Snow |
|---|---|---|---|---|---|---|---|
| 1777945023 | 22.78° C | 30% | 883.5 hPa | 0 mm | - | - | - |
| 1777944123 | 22.78° C | 30% | 883.6 hPa | 0 mm | - | - | - |
| 1777940823 | 23.33° C | 27% | 884.1 hPa | 0 mm | - | - | - |
| 1777939923 | 23.89° C | 29% | 883.9 hPa | 0 mm | - | - | - |
| 1777939023 | 23.89° C | 32% | 883.6 hPa | 0 mm | - | - | - |
| 1777937524 | 23.89° C | 31% | 883.8 hPa | 0 mm | - | - | - |
| 1777936623 | 24.44° C | 30% | 883.9 hPa | 0 mm | - | - | - |
| 1777936323 | 24.44° C | 30% | 883.9 hPa | 0 mm | - | - | - |
| 1777935123 | 25° C | 30% | 884 hPa | 0 mm | - | - | - |
| 1777934824 | 24.44° C | 30% | 884.1 hPa | 0 mm | - | - | - |
| 1777934223 | 25° C | 29% | 883.7 hPa | 0 mm | - | - | - |
| 1777934140 | 25° C | 30% | 883.9 hPa | 0 mm | - | - | - |
| 1777933923 | 25° C | 30% | 883.9 hPa | 0 mm | - | - | - |
| 1777933623 | 25° C | 29% | 883.9 hPa | 0 mm | - | - | - |
| 1777933340 | 25° C | 30% | 883.7 hPa | 0 mm | - | - | - |
| 1777933023 | 25° C | 30% | 883.7 hPa | 0 mm | - | - | - |
| 1777929256 | 26.67° C | 25% | 884.1 hPa | 0 mm | - | - | - |
| 1777927755 | 26.67° C | 25% | 884.2 hPa | 0 mm | - | - | - |
| 1777927558 | 26.67° C | 25% | 884.3 hPa | 0 mm | - | - | - |
| 1777927456 | 26.67° C | 25% | 884.3 hPa | 0 mm | - | - | - |
| 1777923256 | 26.11° C | 27% | 884.4 hPa | 0 mm | - | - | - |
| 1777922355 | 26.11° C | 26% | 884.4 hPa | 0 mm | - | - | - |
| 1777920255 | 25.56° C | 27% | 884.6 hPa | 0 mm | - | - | - |
| 1777919355 | 25° C | 26% | 884.8 hPa | 0 mm | - | - | - |
| 1777916056 | 25.56° C | 27% | 885.6 hPa | 0 mm | - | - | - |
* Rain latest hour (hover to see other rain measurements)
** Current wind speed in m/s (hover to see current wind gust speed)